Time;durP1;ratioP1;P1;durP2;ratioP2;P2;SDS_P1;SDS_P2;PMS_P1;PMS_P2;Temp;Humidity;BMP_temperature;BMP_pressure;BME280_temperature;BME280_humidity;BME280_pressure;Samples;Min_cycle;Max_cycle;Signal;HPM_P1;HPM_P2
2021/12/27 00:01:45;;;;;;;;;8.75;4.00;;;;;13.06;73.54;99708.59;5081494;28;45330;-70
2021/12/27 00:04:11;;;;;;;;;5.75;4.75;;;;;13.09;73.36;99702.22;5086111;27;45287;-70
2021/12/27 00:06:36;;;;;;;;;3.75;3.00;;;;;13.06;73.38;99703.25;5077707;28;45429;-70
2021/12/27 00:09:02;;;;;;;;;3.75;3.75;;;;;13.08;73.53;99695.13;5081671;28;45233;-70
2021/12/27 00:11:28;;;;;;;;;2.50;2.50;;;;;13.04;73.49;99690.91;5081301;28;46051;-70
2021/12/27 00:13:53;;;;;;;;;3.00;3.00;;;;;13.08;73.31;99684.41;5081267;28;45241;-70
2021/12/27 00:16:19;;;;;;;;;2.75;2.75;;;;;13.10;73.41;99674.47;5081559;28;45423;-70
2021/12/27 00:18:44;;;;;;;;;2.25;2.25;;;;;13.11;73.41;99682.44;5081816;28;45331;-70
2021/12/27 00:21:10;;;;;;;;;4.50;3.00;;;;;13.12;73.34;99678.78;5081768;27;45397;-70
2021/12/27 00:23:36;;;;;;;;;3.00;2.00;;;;;13.13;73.48;99682.31;5090539;27;45332;-69
2021/12/27 00:26:01;;;;;;;;;2.25;2.00;;;;;13.06;73.34;99664.88;5064719;28;45547;-70
2021/12/27 00:28:27;;;;;;;;;4.25;1.75;;;;;13.15;73.45;99683.09;5081262;28;45319;-70
2021/12/27 00:30:52;;;;;;;;;2.25;2.25;;;;;13.17;73.40;99678.50;5080917;27;46928;-70
2021/12/27 00:33:18;;;;;;;;;3.25;2.25;;;;;13.13;73.22;99668.91;5080865;28;45409;-70
2021/12/27 00:35:43;;;;;;;;;4.00;2.50;;;;;13.18;73.40;99674.00;5080707;28;45299;-70
2021/12/27 00:38:08;;;;;;;;;5.00;3.00;;;;;13.14;73.26;99676.84;5081226;28;45342;-70
2021/12/27 00:40:35;;;;;;;;;4.75;2.00;;;;;13.17;73.27;99665.09;5079542;27;46143;-70
2021/12/27 00:43:00;;;;;;;;;2.00;1.75;;;;;13.18;73.20;99664.16;5081189;28;45557;-69
2021/12/27 00:45:26;;;;;;;;;3.00;2.00;;;;;13.12;73.10;99653.81;5080786;28;45201;-70
2021/12/27 00:47:51;;;;;;;;;3.75;1.75;;;;;13.12;73.37;99665.38;5080960;28;45591;-70
2021/12/27 00:50:17;;;;;;;;;3.00;1.00;;;;;13.11;73.52;99658.31;5080753;27;45319;-70
2021/12/27 00:52:43;;;;;;;;;4.00;3.00;;;;;13.13;73.53;99663.53;5080728;27;45319;-70
2021/12/27 00:55:11;;;;;;;;;4.75;2.25;;;;;13.13;73.29;99668.91;5083433;27;45734;-70
2021/12/27 00:57:36;;;;;;;;;2.00;2.00;;;;;13.12;73.38;99664.53;5083583;27;45410;-70
2021/12/27 01:00:05;;;;;;;;;1.25;1.25;;;;;13.11;73.51;99657.44;5079935;28;46926;-70
2021/12/27 01:02:31;;;;;;;;;1.75;1.75;;;;;13.14;73.49;99662.59;5080891;28;45481;-70
2021/12/27 01:04:56;;;;;;;;;1.00;1.00;;;;;13.14;73.43;99651.88;5080959;27;45322;-70
2021/12/27 01:07:21;;;;;;;;;4.00;2.00;;;;;13.12;73.66;99656.47;5080874;28;45513;-70
2021/12/27 01:12:47;;;;;;;;;1.50;1.50;;;;;13.13;73.40;99652.81;5086713;27;45507;-70
2021/12/27 01:17:45;;;;;;;;;3.00;1.75;;;;;13.14;73.59;99639.34;5080530;28;45292;-70
2021/12/27 01:20:14;;;;;;;;;3.75;2.00;;;;;13.13;73.41;99644.78;5080467;28;45291;-70
2021/12/27 01:22:40;;;;;;;;;1.00;1.00;;;;;13.07;73.22;99629.97;5080382;28;45290;-70
2021/12/27 01:25:07;;;;;;;;;3.00;2.00;;;;;13.15;73.26;99640.22;5080588;28;45347;-70
2021/12/27 01:27:34;;;;;;;;;2.25;1.25;;;;;13.14;73.25;99638.50;5080658;27;45165;-70
2021/12/27 01:29:59;;;;;;;;;1.25;1.25;;;;;13.11;73.29;99628.84;5082540;27;45309;-70
2021/12/27 01:32:29;;;;;;;;;1.50;0.25;;;;;13.09;73.31;99629.88;5077943;27;45295;-70
2021/12/27 01:34:55;;;;;;;;;1.00;1.00;;;;;13.14;73.46;99630.44;5080637;28;45359;-70
2021/12/27 01:37:21;;;;;;;;;1.50;1.50;;;;;13.14;73.22;99623.25;5080169;28;45422;-69
2021/12/27 01:39:46;;;;;;;;;3.00;2.00;;;;;13.14;73.17;99620.59;5080178;28;46230;-70
2021/12/27 01:42:11;;;;;;;;;3.50;1.50;;;;;13.19;73.16;99624.81;5079849;28;45248;-70
2021/12/27 01:44:39;;;;;;;;;2.25;2.00;;;;;13.16;73.49;99621.38;5089806;27;45590;-70
2021/12/27 01:47:06;;;;;;;;;6.75;2.25;;;;;13.18;73.29;99618.59;5081540;27;45491;-70
2021/12/27 01:49:31;;;;;;;;;1.50;1.50;;;;;13.18;73.09;99612.38;5079854;28;45442;-70
2021/12/27 01:51:57;;;;;;;;;3.00;1.75;;;;;13.19;73.35;99616.78;5081170;27;45344;-70
2021/12/27 01:54:22;;;;;;;;;1.75;1.00;;;;;13.20;72.88;99610.44;5088057;27;45404;-70
2021/12/27 01:56:51;;;;;;;;;1.25;0.75;;;;;13.16;73.10;99599.06;5065109;28;45398;-70
2021/12/27 01:59:16;;;;;;;;;2.00;2.00;;;;;13.19;73.29;99604.25;5079723;28;46054;-70
2021/12/27 02:01:41;;;;;;;;;2.00;2.00;;;;;13.19;73.19;99611.41;5079891;28;45280;-70
2021/12/27 02:04:07;;;;;;;;;0.50;0.50;;;;;13.21;73.38;99625.59;5080202;28;45315;-70
2021/12/27 02:06:32;;;;;;;;;1.00;1.00;;;;;13.26;73.17;99620.81;5079771;28;45236;-70
2021/12/27 02:08:57;;;;;;;;;1.50;1.00;;;;;13.24;73.05;99617.34;5089441;27;45301;-70
2021/12/27 02:11:23;;;;;;;;;1.50;1.50;;;;;13.27;73.00;99617.19;5080552;27;45297;-70
2021/12/27 02:13:49;;;;;;;;;1.75;1.00;;;;;13.29;73.14;99609.91;5079549;28;45218;-70
2021/12/27 02:16:17;;;;;;;;;3.75;2.00;;;;;13.30;73.16;99611.63;5073996;28;45865;-70
2021/12/27 02:18:44;;;;;;;;;2.00;2.00;;;;;13.27;72.94;99601.09;5071091;28;46295;-70
2021/12/27 02:21:10;;;;;;;;;2.00;2.00;;;;;13.27;73.09;99591.22;5079665;28;45573;-70
2021/12/27 02:23:40;;;;;;;;;2.25;2.00;;;;;13.28;73.20;99600.13;5079950;28;45293;-70
2021/12/27 02:26:05;;;;;;;;;2.25;2.25;;;;;13.30;72.95;99600.91;5079422;27;45242;-70
2021/12/27 02:28:30;;;;;;;;;1.25;1.25;;;;;13.28;72.99;99598.31;5079472;28;46106;-70
2021/12/27 02:30:56;;;;;;;;;2.75;2.00;;;;;13.27;73.10;99588.56;5079308;28;45479;-70
2021/12/27 02:33:21;;;;;;;;;4.75;2.00;;;;;13.29;73.20;99585.78;5079743;28;45402;-70
2021/12/27 02:35:56;;;;;;;;;4.00;3.00;;;;;13.26;73.33;99584.13;5079465;28;45508;-70
2021/12/27 02:38:30;;;;;;;;;4.75;3.25;;;;;13.19;73.16;99577.44;5079407;28;46297;-70
2021/12/27 02:40:56;;;;;;;;;3.00;3.00;;;;;13.18;73.23;99588.25;5069546;27;45415;-70
2021/12/27 02:43:24;;;;;;;;;4.50;2.00;;;;;13.21;73.38;99591.59;5084387;27;45298;-70
2021/12/27 02:45:52;;;;;;;;;3.50;2.50;;;;;13.19;73.20;99587.31;5079573;28;45530;-70
2021/12/27 02:48:22;;;;;;;;;3.00;2.00;;;;;13.21;73.43;99594.28;5079030;28;46293;-70
2021/12/27 02:50:49;;;;;;;;;4.00;2.75;;;;;13.21;73.26;99580.03;5067666;28;46435;-70
2021/12/27 02:53:15;;;;;;;;;3.25;3.25;;;;;13.18;73.26;99572.19;5079086;28;45441;-70
2021/12/27 02:55:41;;;;;;;;;3.00;2.00;;;;;13.20;73.38;99573.81;5079286;28;45394;-70
2021/12/27 02:58:08;;;;;;;;;2.00;2.00;;;;;13.20;73.32;99568.47;5070666;28;48560;-70
2021/12/27 03:01:05;;;;;;;;;3.00;1.75;;;;;13.20;73.09;99565.78;5082731;28;45244;-70
2021/12/27 03:03:31;;;;;;;;;4.25;3.00;;;;;13.14;73.17;99563.47;5082932;28;45343;-70
2021/12/27 03:05:57;;;;;;;;;3.00;3.00;;;;;13.15;73.52;99566.06;5082652;28;45325;-70
2021/12/27 03:08:23;;;;;;;;;2.50;2.25;;;;;13.15;73.27;99557.16;5082528;28;46098;-70
2021/12/27 03:10:54;;;;;;;;;3.25;3.00;;;;;13.12;73.21;99555.53;5082422;28;45299;-70
2021/12/27 03:13:26;;;;;;;;;3.75;2.25;;;;;13.13;72.97;99548.34;5085051;27;45480;-70
2021/12/27 03:15:53;;;;;;;;;4.00;3.00;;;;;13.15;73.38;99554.50;5082587;27;45296;-70
2021/12/27 03:18:18;;;;;;;;;3.50;2.50;;;;;13.20;72.82;99557.75;5082564;27;46326;-70
2021/12/27 03:20:44;;;;;;;;;5.25;4.00;;;;;13.19;73.20;99552.47;5082331;28;45142;-70
2021/12/27 03:23:09;;;;;;;;;3.00;3.00;;;;;13.16;73.17;99551.72;5082751;28;45621;-70
2021/12/27 03:25:35;;;;;;;;;3.00;3.00;;;;;13.22;73.00;99557.66;5080300;28;45306;-70
2021/12/27 03:28:00;;;;;;;;;5.25;4.00;;;;;13.21;73.05;99555.91;5072793;27;45450;-69
2021/12/27 03:30:26;;;;;;;;;4.00;3.50;;;;;13.18;72.95;99548.06;5078246;27;45328;-70
2021/12/27 03:32:52;;;;;;;;;2.00;2.00;;;;;13.16;73.07;99549.03;5082646;28;45302;-70
2021/12/27 03:35:25;;;;;;;;;2.00;2.00;;;;;13.18;73.05;99556.09;5081987;27;45366;-70
2021/12/27 03:37:54;;;;;;;;;3.75;2.00;;;;;13.16;73.14;99545.47;5082204;27;45358;-70
2021/12/27 03:40:21;;;;;;;;;3.25;1.50;;;;;13.18;73.15;99543.59;5081765;28;45337;-70
2021/12/27 03:42:49;;;;;;;;;4.00;2.75;;;;;13.19;73.26;99531.03;5082431;28;45293;-70
2021/12/27 03:45:18;;;;;;;;;2.00;2.00;;;;;13.14;73.17;99516.09;5080527;27;45549;-70
2021/12/27 03:47:43;;;;;;;;;3.50;3.50;;;;;13.21;73.00;99523.75;5081866;28;48858;-69
2021/12/27 03:50:09;;;;;;;;;3.25;2.75;;;;;13.17;73.04;99517.72;5081836;27;46611;-70
2021/12/27 03:52:34;;;;;;;;;7.00;5.75;;;;;13.19;73.02;99509.59;5081876;28;45335;-70
2021/12/27 03:55:00;;;;;;;;;3.25;2.00;;;;;13.20;73.01;99514.88;5081772;28;45531;-69
2021/12/27 03:57:25;;;;;;;;;3.25;3.25;;;;;13.17;73.21;99504.34;5081703;28;45536;-70
2021/12/27 04:00:15;;;;;;;;;2.00;2.00;;;;;13.18;73.08;99507.88;5081444;28;45345;-69
2021/12/27 04:02:37;;;;;;;;;4.25;3.00;;;;;13.22;73.09;99509.41;5075388;28;45260;-69
2021/12/27 04:05:04;;;;;;;;;3.00;2.00;;;;;13.18;72.90;99510.53;5081815;28;45437;-70
2021/12/27 04:07:34;;;;;;;;;4.25;3.50;;;;;13.18;73.03;99505.19;5081664;27;45538;-70
2021/12/27 04:09:59;;;;;;;;;5.00;2.25;;;;;13.12;72.97;99485.88;5062285;28;45574;-70
2021/12/27 04:12:24;;;;;;;;;4.75;3.75;;;;;13.15;73.09;99506.25;5081673;28;45323;-70
2021/12/27 04:14:50;;;;;;;;;4.00;2.50;;;;;13.12;72.95;99498.41;5081179;27;46692;-70
2021/12/27 04:17:15;;;;;;;;;3.50;2.00;;;;;13.13;72.83;99505.47;5081640;28;45406;-69
2021/12/27 04:19:40;;;;;;;;;3.50;3.50;;;;;13.12;73.11;99499.25;5091364;27;45375;-69
2021/12/27 04:22:05;;;;;;;;;1.75;1.00;;;;;13.13;72.94;99500.09;5081574;28;45361;-70
2021/12/27 04:24:31;;;;;;;;;4.00;4.00;;;;;13.11;72.94;99492.19;5081583;28;45295;-70
2021/12/27 04:26:56;;;;;;;;;4.50;3.00;;;;;13.06;73.09;99483.56;5080941;28;45228;-70
2021/12/27 04:29:21;;;;;;;;;4.75;3.00;;;;;13.12;72.97;99487.69;5080873;28;45342;-70
2021/12/27 04:31:47;;;;;;;;;6.50;4.25;;;;;13.18;72.96;99494.47;5081477;28;45314;-70
2021/12/27 04:34:12;;;;;;;;;3.00;3.00;;;;;13.17;72.79;99490.94;5081240;28;45324;-70
2021/12/27 04:36:37;;;;;;;;;5.00;4.00;;;;;13.18;72.78;99502.50;5080909;27;45263;-69
2021/12/27 04:39:03;;;;;;;;;2.00;2.00;;;;;13.17;72.91;99501.66;5081052;28;45289;-69
2021/12/27 04:41:28;;;;;;;;;2.75;2.75;;;;;13.09;72.79;99490.56;5081034;28;45408;-69
2021/12/27 04:43:54;;;;;;;;;4.75;3.00;;;;;13.05;72.63;99494.41;5080990;28;45735;-70
2021/12/27 04:46:19;;;;;;;;;3.75;2.50;;;;;13.06;72.99;99502.31;5081132;27;45294;-69
2021/12/27 04:48:44;;;;;;;;;5.00;3.00;;;;;13.04;73.09;99500.69;5080904;27;45363;-69
2021/12/27 04:51:10;;;;;;;;;3.00;3.00;;;;;13.06;73.02;99509.50;5086550;27;45304;-69
2021/12/27 04:53:36;;;;;;;;;3.00;3.00;;;;;12.94;72.86;99503.94;5080722;27;45219;-69
2021/12/27 04:56:02;;;;;;;;;7.00;3.25;;;;;12.94;72.86;99516.47;5080770;28;46559;-69
2021/12/27 04:58:27;;;;;;;;;3.00;3.00;;;;;12.93;72.92;99520.09;5080550;28;45315;-69
2021/12/27 05:00:53;;;;;;;;;4.00;3.00;;;;;12.91;73.14;99522.91;5081196;28;45287;-70
2021/12/27 05:03:19;;;;;;;;;2.00;2.00;;;;;12.95;73.17;99523.56;5062538;28;45631;-70
2021/12/27 05:05:46;;;;;;;;;4.00;3.00;;;;;12.98;73.20;99518.03;5080765;28;45779;-70
2021/12/27 05:08:12;;;;;;;;;3.00;3.00;;;;;12.98;73.22;99532.28;5090870;27;45611;-70
2021/12/27 05:10:37;;;;;;;;;3.00;3.00;;;;;12.98;72.91;99523.38;5080715;28;45340;-70
2021/12/27 05:13:03;;;;;;;;;6.00;2.00;;;;;12.89;72.89;99519.44;5080388;28;45353;-69
2021/12/27 05:15:29;;;;;;;;;3.75;3.75;;;;;12.97;73.26;99532.38;5080575;28;45293;-69
2021/12/27 05:17:54;;;;;;;;;7.00;4.00;;;;;12.95;73.11;99528.94;5080544;27;45429;-70
2021/12/27 05:20:20;;;;;;;;;3.50;3.50;;;;;12.98;73.12;99532.28;5080386;28;45163;-70
2021/12/27 05:22:45;;;;;;;;;7.75;5.50;;;;;12.96;73.35;99526.16;5065459;28;46120;-69
2021/12/27 05:25:11;;;;;;;;;5.00;3.00;;;;;12.97;72.99;99518.97;5083541;27;45419;-69
2021/12/27 05:27:39;;;;;;;;;6.75;4.50;;;;;13.00;73.04;99531.28;5079822;28;45375;-69
2021/12/27 05:30:07;;;;;;;;;4.50;3.50;;;;;13.04;73.13;99527.50;5080280;28;45481;-69
2021/12/27 05:32:34;;;;;;;;;4.00;4.00;;;;;13.04;72.95;99524.81;5080418;27;45295;-69
2021/12/27 05:34:59;;;;;;;;;5.25;4.00;;;;;12.97;72.90;99509.13;5080185;27;46153;-70
2021/12/27 05:37:24;;;;;;;;;3.75;3.50;;;;;13.01;72.92;99511.59;5080186;28;45303;-70
2021/12/27 05:39:50;;;;;;;;;4.25;4.00;;;;;13.02;73.00;99503.47;5080158;28;45477;-70
2021/12/27 05:42:15;;;;;;;;;4.50;3.50;;;;;13.03;72.90;99504.31;5081788;27;45145;-70
2021/12/27 05:44:41;;;;;;;;;5.00;3.00;;;;;13.02;73.02;99492.75;5080125;28;45451;-69
2021/12/27 05:47:06;;;;;;;;;5.00;5.00;;;;;13.02;73.01;99492.75;5080088;28;45384;-70
2021/12/27 05:49:32;;;;;;;;;6.00;4.50;;;;;12.97;72.90;99479.66;5080206;28;45260;-70
2021/12/27 05:51:57;;;;;;;;;7.00;6.00;;;;;12.99;72.87;99471.53;5079984;28;45248;-69
2021/12/27 05:54:23;;;;;;;;;5.50;4.00;;;;;13.01;72.88;99458.88;5079843;28;46120;-70
2021/12/27 05:56:49;;;;;;;;;5.50;4.50;;;;;13.02;72.84;99463.28;5078482;27;45280;-69
2021/12/27 05:59:17;;;;;;;;;7.50;5.00;;;;;13.00;72.85;99448.25;5086965;27;45315;-69
2021/12/27 06:01:44;;;;;;;;;8.75;8.25;;;;;12.96;72.87;99445.81;5066934;28;45186;-69
2021/12/27 06:04:09;;;;;;;;;7.25;4.50;;;;;12.97;72.85;99436.78;5079807;28;46154;-69
2021/12/27 06:06:36;;;;;;;;;7.75;5.75;;;;;12.94;72.88;99426.25;5080198;28;45243;-70
2021/12/27 06:09:03;;;;;;;;;6.50;6.50;;;;;12.94;72.76;99417.38;5080017;28;45277;-69
2021/12/27 06:11:28;;;;;;;;;4.50;4.50;;;;;12.92;72.55;99416.63;5079739;27;45822;-69
2021/12/27 06:13:54;;;;;;;;;5.75;5.50;;;;;12.88;72.75;99397.22;5082134;27;46285;-69
2021/12/27 06:16:20;;;;;;;;;7.00;5.25;;;;;12.87;72.63;99395.47;5076931;28;46252;-69
2021/12/27 06:18:46;;;;;;;;;5.00;5.00;;;;;12.82;72.62;99386.88;5080052;28;45363;-70
2021/12/27 06:21:11;;;;;;;;;6.00;4.25;;;;;12.78;72.81;99374.66;5079713;28;45380;-70
2021/12/27 06:23:36;;;;;;;;;4.75;3.00;;;;;12.79;72.91;99371.00;5061513;28;46941;-70
2021/12/27 06:26:02;;;;;;;;;5.50;4.50;;;;;12.81;72.81;99361.06;5073109;28;45240;-70
2021/12/27 06:28:29;;;;;;;;;7.00;5.00;;;;;12.81;72.80;99355.69;5079709;28;45271;-70
2021/12/27 06:30:54;;;;;;;;;6.00;5.00;;;;;12.77;72.77;99348.81;5079009;27;45319;-70
2021/12/27 06:33:20;;;;;;;;;5.25;4.75;;;;;12.78;72.08;99339.84;5090311;27;46573;-70
2021/12/27 06:35:45;;;;;;;;;6.50;6.50;;;;;12.77;72.33;99338.13;5083032;27;45426;-70
2021/12/27 06:38:11;;;;;;;;;6.75;5.00;;;;;12.76;72.47;99325.69;5083234;28;45303;-70
2021/12/27 06:40:36;;;;;;;;;4.75;4.00;;;;;12.74;72.57;99314.22;5082673;28;45409;-69
2021/12/27 06:43:02;;;;;;;;;7.00;5.00;;;;;12.68;72.71;99303.88;5082683;28;45445;-69
2021/12/27 06:45:28;;;;;;;;;6.75;5.00;;;;;12.65;72.49;99302.28;5082801;28;45343;-69
2021/12/27 06:47:53;;;;;;;;;5.00;5.00;;;;;12.72;72.54;99306.28;5083023;28;45379;-69
2021/12/27 06:50:19;;;;;;;;;4.00;4.00;;;;;12.69;72.46;99302.94;5064679;28;45525;-69
2021/12/27 06:52:45;;;;;;;;;6.25;5.00;;;;;12.71;72.52;99317.09;5082720;27;45469;-69
2021/12/27 06:55:11;;;;;;;;;5.00;5.00;;;;;12.67;72.52;99304.84;5082396;28;45587;-69
2021/12/27 06:57:37;;;;;;;;;8.25;5.50;;;;;12.63;72.29;99300.66;5074002;28;45217;-69
2021/12/27 07:00:06;;;;;;;;;3.75;3.50;;;;;12.64;72.47;99321.13;5082500;28;45593;-69
2021/12/27 07:02:33;;;;;;;;;6.00;6.00;;;;;12.64;72.46;99321.97;5082753;28;47300;-69
2021/12/27 07:04:58;;;;;;;;;4.25;4.25;;;;;12.62;72.18;99318.53;5068174;28;45314;-69
2021/12/27 07:07:24;;;;;;;;;5.25;4.75;;;;;12.62;72.82;99323.03;5085400;27;45353;-69
2021/12/27 07:09:49;;;;;;;;;3.00;3.00;;;;;12.63;72.68;99316.72;5082730;28;45334;-69
2021/12/27 07:12:15;;;;;;;;;4.50;4.50;;;;;12.59;72.36;99316.91;5082311;27;45504;-70
2021/12/27 07:14:41;;;;;;;;;6.00;4.50;;;;;12.63;72.45;99312.22;5082159;27;45386;-70
2021/12/27 07:17:06;;;;;;;;;6.00;5.00;;;;;12.54;72.29;99305.63;5064509;28;45320;-70
2021/12/27 07:19:32;;;;;;;;;5.00;4.25;;;;;12.56;72.29;99302.84;5082325;28;45291;-69
2021/12/27 07:21:57;;;;;;;;;3.00;3.00;;;;;12.56;72.53;99303.72;5091022;27;46291;-70
2021/12/27 07:24:22;;;;;;;;;3.75;3.75;;;;;12.59;72.50;99306.19;5084043;27;45411;-70
2021/12/27 07:26:48;;;;;;;;;4.00;3.00;;;;;12.59;72.22;99298.16;5082091;27;45429;-69
2021/12/27 07:29:13;;;;;;;;;4.00;3.00;;;;;12.64;72.05;99302.38;5080631;28;45400;-69
2021/12/27 07:31:39;;;;;;;;;3.00;3.00;;;;;12.64;72.14;99310.41;5082184;28;45643;-69
2021/12/27 07:34:04;;;;;;;;;4.50;4.00;;;;;12.51;72.03;99297.81;5081927;28;45395;-70
2021/12/27 07:36:31;;;;;;;;;3.25;3.00;;;;;12.60;71.93;99315.94;5082497;28;45284;-69
2021/12/27 07:38:57;;;;;;;;;7.50;3.50;;;;;12.53;72.03;99311.94;5057948;28;45557;-70
2021/12/27 07:41:23;;;;;;;;;5.00;3.75;;;;;12.51;72.00;99313.88;5081914;28;46144;-69
2021/12/27 07:43:49;;;;;;;;;1.75;1.50;;;;;12.53;71.89;99311.94;5063141;28;45385;-70
2021/12/27 07:46:14;;;;;;;;;6.25;4.00;;;;;12.52;72.15;99312.91;5076174;28;45520;-70
2021/12/27 07:48:39;;;;;;;;;4.25;3.50;;;;;12.51;71.92;99308.53;5071942;28;45486;-69
2021/12/27 07:51:05;;;;;;;;;4.00;3.00;;;;;12.45;72.16;99295.53;5060647;28;48046;-69
2021/12/27 07:53:30;;;;;;;;;4.00;3.00;;;;;12.48;72.00;99297.13;5064333;28;45446;-69
2021/12/27 07:55:56;;;;;;;;;3.00;3.00;;;;;12.51;72.10;99303.16;5082370;27;45432;-69
2021/12/27 07:58:21;;;;;;;;;5.00;2.00;;;;;12.51;72.13;99307.63;5083086;27;45393;-69
2021/12/27 08:00:50;;;;;;;;;2.00;2.00;;;;;12.48;71.85;99298.00;5078783;28;46299;-69
2021/12/27 08:03:20;;;;;;;;;5.00;3.50;;;;;12.47;71.66;99298.94;5066849;28;45674;-71
2021/12/27 08:05:47;;;;;;;;;2.25;2.00;;;;;12.45;71.86;99289.31;5071124;27;45362;-71
2021/12/27 08:08:12;;;;;;;;;4.75;3.00;;;;;12.51;71.87;99299.63;5083502;27;45541;-68
2021/12/27 08:10:37;;;;;;;;;4.00;3.00;;;;;12.48;71.79;99291.78;5070748;27;46161;-68
2021/12/27 08:13:03;;;;;;;;;3.00;2.75;;;;;12.45;71.68;99292.00;5078341;28;45226;-69
2021/12/27 08:15:28;;;;;;;;;2.75;2.75;;;;;12.45;71.93;99287.50;5072445;28;45438;-72
2021/12/27 08:17:54;;;;;;;;;4.50;3.25;;;;;12.48;71.62;99298.00;5081642;28;45228;-71
2021/12/27 08:20:19;;;;;;;;;3.00;3.00;;;;;12.43;71.83;99284.06;5068502;27;46064;-71
2021/12/27 08:22:45;;;;;;;;;3.00;3.00;;;;;12.45;71.69;99289.31;5072512;28;45182;-69
2021/12/27 08:25:11;;;;;;;;;4.00;4.00;;;;;12.51;71.73;99294.25;5080732;27;45504;-69
2021/12/27 08:27:38;;;;;;;;;4.00;4.00;;;;;12.49;71.93;99282.78;5072123;27;45732;-69
2021/12/27 08:30:05;;;;;;;;;2.50;2.50;;;;;12.47;71.60;99282.03;5064062;28;45401;-67
2021/12/27 08:32:36;;;;;;;;;3.00;3.00;;;;;12.46;71.49;99274.97;5060455;28;45322;-69
2021/12/27 08:35:02;;;;;;;;;3.00;2.00;;;;;12.43;71.04;99276.03;5080572;28;45473;-70
2021/12/27 08:37:31;;;;;;;;;4.00;3.00;;;;;12.45;71.76;99274.09;5080816;28;45796;-68
2021/12/27 08:39:58;;;;;;;;;3.00;2.00;;;;;12.45;71.41;99279.47;5080619;28;45399;-68
2021/12/27 08:42:24;;;;;;;;;3.25;3.25;;;;;12.44;71.62;99274.19;5081256;27;45228;-68
2021/12/27 08:44:49;;;;;;;;;3.00;3.00;;;;;12.37;71.89;99273.72;5079547;27;45336;-68
2021/12/27 08:47:15;;;;;;;;;3.25;3.25;;;;;12.43;71.48;99276.03;5083909;27;45232;-68
2021/12/27 08:49:41;;;;;;;;;2.75;2.75;;;;;12.41;71.63;99280.59;5079923;28;46291;-68
2021/12/27 08:52:07;;;;;;;;;2.00;2.00;;;;;12.39;71.54;99269.13;5072899;28;45654;-68
2021/12/27 08:54:33;;;;;;;;;6.00;3.00;;;;;12.39;71.77;99269.13;5068671;28;45437;-68
2021/12/27 08:56:58;;;;;;;;;3.50;3.00;;;;;12.37;71.79;99257.69;5074023;27;45264;-67
2021/12/27 08:59:23;;;;;;;;;5.50;3.50;;;;;12.39;71.40;99264.63;5075847;28;45439;-67
2021/12/27 09:01:49;;;;;;;;;3.25;3.00;;;;;12.32;71.36;99249.94;5067636;28;45260;-68
2021/12/27 09:04:14;;;;;;;;;3.00;3.00;;;;;12.31;71.37;99256.25;5086198;27;45521;-67
2021/12/27 09:06:40;;;;;;;;;3.75;3.00;;;;;12.26;71.76;99250.31;5068769;28;45517;-68
2021/12/27 09:09:05;;;;;;;;;4.00;4.00;;;;;12.29;71.80;99252.81;5076184;28;46171;-67
2021/12/27 09:11:31;;;;;;;;;2.25;2.00;;;;;12.30;71.91;99261.72;5080484;28;45441;-67
2021/12/27 09:13:57;;;;;;;;;3.00;3.00;;;;;12.27;71.59;99262.75;5078378;28;45661;-68
2021/12/27 09:16:23;;;;;;;;;4.25;4.25;;;;;12.22;71.93;99248.81;5080717;27;45244;-67
2021/12/27 09:18:48;;;;;;;;;2.00;2.00;;;;;12.23;71.57;99259.41;5067571;28;45569;-67
2021/12/27 09:21:13;;;;;;;;;4.00;3.00;;;;;12.19;71.68;99252.50;5073034;28;46732;-69
2021/12/27 09:23:39;;;;;;;;;3.00;3.00;;;;;12.20;71.82;99254.25;5076562;28;45611;-67
2021/12/27 09:26:05;;;;;;;;;2.00;2.00;;;;;12.15;71.93;99244.81;5075754;28;45465;-69
2021/12/27 09:28:30;;;;;;;;;3.00;2.00;;;;;12.14;72.11;99249.28;5078645;28;45398;-70
2021/12/27 09:30:56;;;;;;;;;2.25;2.25;;;;;12.15;71.98;99258.19;5054754;28;45356;-71
2021/12/27 09:33:22;;;;;;;;;3.00;3.00;;;;;12.11;71.84;99244.13;5060940;28;45580;-77
2021/12/27 09:35:48;;;;;;;;;3.50;2.75;;;;;12.12;72.11;99251.19;5079998;28;45323;-76
2021/12/27 09:38:13;;;;;;;;;3.25;3.25;;;;;12.08;72.01;99244.31;5061659;28;47013;-83
2021/12/27 09:40:40;;;;;;;;;3.75;3.25;;;;;12.08;72.06;99238.97;5075823;28;45314;-78
2021/12/27 09:43:05;;;;;;;;;5.00;3.00;;;;;12.02;72.42;99237.53;5079988;28;45296;-78
2021/12/27 09:45:31;;;;;;;;;3.25;3.25;;;;;12.02;72.26;99234.84;5079906;28;45663;-78
2021/12/27 09:47:57;;;;;;;;;2.50;2.00;;;;;12.10;72.40;99247.75;5079934;28;46148;-78
2021/12/27 09:50:38;;;;;;;;;3.00;3.00;;;;;12.00;72.37;99234.09;5079812;28;45323;-78
2021/12/27 09:53:04;;;;;;;;;4.50;3.50;;;;;12.05;72.61;99239.16;5077552;28;45489;-78
2021/12/27 09:55:29;;;;;;;;;2.75;2.00;;;;;11.99;72.77;99227.00;5079712;28;45424;-77
2021/12/27 09:57:55;;;;;;;;;3.50;2.00;;;;;12.03;72.48;99241.94;5079498;28;46038;-78
2021/12/27 10:00:21;;;;;;;;;4.50;3.00;;;;;12.01;72.62;99237.63;5080131;28;45415;-78
2021/12/27 10:02:51;;;;;;;;;3.00;3.00;;;;;11.98;72.57;99238.69;5080067;28;45218;-79
2021/12/27 10:05:20;;;;;;;;;4.25;2.75;;;;;12.03;72.38;99246.44;5078671;28;45440;-79
2021/12/27 10:07:46;;;;;;;;;3.25;3.25;;;;;12.00;72.51;99242.13;5082741;28;45508;-78
2021/12/27 10:10:12;;;;;;;;;2.25;2.25;;;;;12.04;72.93;99238.31;5082153;28;46062;-78
2021/12/27 10:12:38;;;;;;;;;2.75;2.75;;;;;12.05;72.90;99244.50;5083137;28;45182;-78
2021/12/27 10:15:08;;;;;;;;;4.50;3.75;;;;;12.04;72.59;99248.13;5083211;27;45233;-80
2021/12/27 10:17:36;;;;;;;;;7.00;5.50;;;;;11.91;73.02;99226.66;5083323;27;45458;-81
2021/12/27 10:20:15;;;;;;;;;5.75;5.75;;;;;12.01;73.22;99242.97;5083151;28;45625;-79
2021/12/27 10:22:44;;;;;;;;;3.00;2.25;;;;;12.00;73.26;99238.59;5083241;27;45464;-78
2021/12/27 10:25:21;;;;;;;;;3.50;2.75;;;;;11.94;72.93;99229.13;5081685;28;45449;-78
2021/12/27 10:27:48;;;;;;;;;2.75;2.75;;;;;11.99;73.18;99229.69;5082233;28;47341;-78
2021/12/27 10:30:19;;;;;;;;;3.00;3.00;;;;;11.96;73.40;99229.03;5074031;28;45412;-79
2021/12/27 10:33:01;;;;;;;;;3.75;2.25;;;;;12.00;73.32;99234.09;5081446;28;45343;-78
2021/12/27 10:35:57;;;;;;;;;3.00;2.00;;;;;11.96;73.20;99229.91;5081421;28;45941;-78
2021/12/27 10:38:26;;;;;;;;;3.75;3.75;;;;;12.05;73.32;99237.34;5081118;28;45272;-78
2021/12/27 10:40:53;;;;;;;;;3.00;3.00;;;;;12.10;73.49;99225.50;5082976;28;45689;-78
2021/12/27 10:43:33;;;;;;;;;2.75;2.00;;;;;12.09;73.38;99221.97;5081497;28;45268;-78
2021/12/27 10:46:03;;;;;;;;;3.75;3.75;;;;;12.08;73.07;99216.69;5083114;28;45256;-78
2021/12/27 10:48:34;;;;;;;;;3.00;3.00;;;;;12.08;73.44;99220.25;5082464;28;46222;-78
2021/12/27 10:51:00;;;;;;;;;2.50;2.50;;;;;12.10;73.20;99228.19;5082960;28;45530;-79
2021/12/27 10:53:25;;;;;;;;;3.50;3.50;;;;;12.07;73.40;99217.69;5082626;28;45394;-78
2021/12/27 10:55:50;;;;;;;;;3.50;2.75;;;;;12.08;73.30;99224.72;5082811;28;45359;-78
2021/12/27 10:58:18;;;;;;;;;3.00;2.00;;;;;12.12;73.29;99227.13;5082272;28;46203;-78
2021/12/27 11:00:46;;;;;;;;;3.25;3.25;;;;;12.03;73.41;99212.50;5082845;28;45420;-78
2021/12/27 11:03:47;;;;;;;;;3.75;2.50;;;;;12.07;73.35;99220.34;5082686;28;45395;-79
2021/12/27 11:06:20;;;;;;;;;3.00;3.00;;;;;12.04;73.51;99227.63;5082483;28;45157;-79
2021/12/27 11:08:45;;;;;;;;;4.25;4.25;;;;;12.05;73.56;99231.16;5082806;28;45554;-78
2021/12/27 11:11:15;;;;;;;;;3.25;3.25;;;;;12.14;73.74;99246.59;5082301;28;45457;-79
2021/12/27 11:13:43;;;;;;;;;4.00;3.25;;;;;12.18;73.57;99244.63;5082369;28;45351;-78
2021/12/27 11:16:09;;;;;;;;;4.50;4.00;;;;;12.18;73.32;99242.78;5081352;28;45381;-79
2021/12/27 11:18:35;;;;;;;;;3.50;3.50;;;;;12.12;73.60;99242.31;5068308;28;48197;-79
2021/12/27 11:21:12;;;;;;;;;3.00;3.00;;;;;12.10;73.62;99236.22;5084040;28;45461;-79
2021/12/27 11:23:41;;;;;;;;;6.50;5.00;;;;;12.10;73.74;99230.88;5082604;28;45256;-79
2021/12/27 11:26:12;;;;;;;;;4.00;4.00;;;;;12.13;74.03;99234.19;5078315;27;45460;-79
2021/12/27 11:28:41;;;;;;;;;6.25;5.25;;;;;12.16;73.73;99235.81;5070191;28;47366;-79
2021/12/27 11:31:26;;;;;;;;;2.75;2.75;;;;;12.24;73.50;99238.84;5081989;27;45232;-83
2021/12/27 11:33:51;;;;;;;;;7.50;5.75;;;;;12.28;73.58;99239.50;5068701;27;45453;-81
2021/12/27 11:36:17;;;;;;;;;5.00;4.75;;;;;12.27;73.45;99238.66;5081002;27;45536;-80
2021/12/27 11:38:44;;;;;;;;;6.50;6.00;;;;;12.20;73.62;99206.09;5062842;27;48278;-77